createdAt,value
2023-02-06T00:01:40.197Z,19.90
2023-02-06T00:04:08.643Z,19.90
2023-02-06T00:06:42.086Z,19.70
2023-02-06T00:09:10.542Z,19.30
2023-02-06T00:11:42.220Z,17.70
2023-02-06T00:14:10.494Z,21.10
2023-02-06T00:16:58.589Z,18.60
2023-02-06T00:19:27.715Z,19.20
2023-02-06T00:21:56.383Z,21.20
2023-02-06T00:24:24.565Z,18.60
2023-02-06T00:26:53.612Z,19.90
2023-02-06T00:29:21.947Z,17.50
2023-02-06T00:31:50.495Z,19.10
2023-02-06T00:34:18.738Z,19.80
2023-02-06T00:36:47.032Z,18.00
2023-02-06T00:39:15.587Z,19.80
2023-02-06T00:41:44.368Z,19.80
2023-02-06T00:44:12.752Z,19.80
2023-02-06T00:46:42.307Z,19.40
2023-02-06T00:49:10.991Z,19.60
2023-02-06T00:51:40.006Z,18.90
2023-02-06T00:54:09.408Z,18.90
2023-02-06T00:56:38.622Z,17.90
2023-02-06T00:59:06.826Z,19.70
2023-02-06T01:01:35.140Z,19.20
2023-02-06T01:04:03.480Z,19.20
2023-02-06T01:06:45.983Z,17.50
2023-02-06T01:09:14.235Z,20.10
2023-02-06T01:11:42.555Z,18.70
2023-02-06T01:14:11.006Z,18.60
2023-02-06T01:16:39.363Z,18.00
2023-02-06T01:19:07.868Z,19.10
2023-02-06T01:21:36.524Z,18.10
2023-02-06T01:24:05.844Z,19.70
2023-02-06T01:26:34.019Z,17.60
2023-02-06T01:29:03.078Z,17.00
2023-02-06T01:31:32.016Z,18.60
2023-02-06T01:34:01.214Z,15.60
2023-02-06T01:36:29.502Z,18.90
2023-02-06T01:38:58.115Z,18.90
2023-02-06T01:41:26.411Z,17.30
2023-02-06T01:44:13.566Z,16.90
2023-02-06T01:46:44.118Z,16.50
2023-02-06T01:49:18.706Z,16.90
2023-02-06T01:51:46.903Z,16.80
2023-02-06T01:54:15.284Z,17.00
2023-02-06T01:56:47.967Z,16.70
2023-02-06T01:59:16.341Z,18.80
2023-02-06T02:01:45.040Z,20.40
2023-02-06T02:04:16.774Z,17.90
2023-02-06T02:06:47.282Z,17.70
2023-02-06T02:09:15.435Z,17.50
2023-02-06T02:11:43.692Z,16.10
2023-02-06T02:14:13.656Z,15.00
2023-02-06T02:17:06.739Z,18.40
2023-02-06T02:19:43.897Z,18.90
2023-02-06T02:22:27.340Z,17.70
2023-02-06T02:25:26.846Z,18.50
2023-02-06T02:28:10.346Z,18.30
2023-02-06T02:31:16.458Z,17.70
2023-02-06T02:33:59.789Z,18.60
2023-02-06T02:36:34.368Z,18.20
2023-02-06T02:39:09.160Z,20.60
2023-02-06T02:41:45.488Z,17.10
2023-02-06T02:44:28.174Z,18.70
2023-02-06T02:46:58.228Z,17.40
2023-02-06T02:49:29.171Z,16.80
2023-02-06T02:51:57.923Z,18.20
2023-02-06T02:54:26.600Z,16.30
2023-02-06T02:56:56.955Z,16.60
2023-02-06T02:59:29.242Z,16.90
2023-02-06T03:02:04.613Z,16.20
2023-02-06T03:04:54.155Z,16.00
2023-02-06T03:07:35.798Z,15.10
2023-02-06T03:10:23.045Z,16.10
2023-02-06T03:12:54.602Z,15.30
2023-02-06T03:15:32.468Z,15.70
2023-02-06T03:18:12.169Z,17.60
2023-02-06T03:20:42.514Z,18.10
2023-02-06T03:23:12.937Z,16.00
2023-02-06T03:25:42.801Z,16.80
2023-02-06T03:28:19.153Z,19.20
2023-02-06T03:30:49.173Z,19.00
2023-02-06T03:33:17.807Z,16.50
2023-02-06T03:35:46.757Z,15.90
2023-02-06T03:38:15.147Z,16.70
2023-02-06T03:40:44.677Z,17.00
2023-02-06T03:43:18.693Z,18.10
2023-02-06T03:45:52.335Z,19.30
2023-02-06T03:48:27.405Z,16.80
2023-02-06T03:50:56.388Z,19.40
2023-02-06T03:53:24.949Z,18.50
2023-02-06T03:55:55.244Z,19.40
2023-02-06T03:58:24.604Z,19.30
2023-02-06T04:00:53.384Z,19.00
2023-02-06T04:03:22.957Z,19.90
2023-02-06T04:05:51.209Z,20.10
2023-02-06T04:08:22.992Z,21.10
2023-02-06T04:10:51.481Z,20.40
2023-02-06T04:13:20.650Z,22.80
2023-02-06T04:15:49.565Z,20.10
2023-02-06T04:18:18.216Z,19.00
2023-02-06T04:20:46.349Z,18.90
2023-02-06T04:23:14.892Z,22.00
2023-02-06T04:25:43.056Z,20.70
2023-02-06T04:28:11.294Z,21.60
2023-02-06T04:30:43.617Z,23.50
2023-02-06T04:33:12.100Z,22.90
2023-02-06T04:35:41.365Z,23.50
2023-02-06T04:38:10.221Z,21.40
2023-02-06T04:40:38.532Z,21.90
2023-02-06T04:43:07.298Z,22.90
2023-02-06T04:45:35.881Z,20.50
2023-02-06T04:48:04.412Z,21.20
2023-02-06T04:50:34.493Z,23.20
2023-02-06T04:53:02.993Z,23.30
2023-02-06T04:55:31.284Z,22.20
2023-02-06T04:57:59.487Z,21.40
2023-02-06T05:00:28.015Z,20.80
2023-02-06T05:02:56.458Z,20.50
2023-02-06T05:05:24.675Z,19.60
2023-02-06T05:07:53.636Z,22.30
2023-02-06T05:10:21.969Z,21.10
2023-02-06T05:12:53.658Z,22.50
2023-02-06T05:15:22.205Z,21.00
2023-02-06T05:17:51.975Z,21.60
2023-02-06T05:20:20.390Z,20.70
2023-02-06T05:22:50.212Z,20.10
2023-02-06T05:25:18.640Z,22.60
2023-02-06T05:27:47.234Z,19.80
2023-02-06T05:30:16.808Z,22.10
2023-02-06T05:32:45.229Z,20.70
2023-02-06T05:35:13.333Z,22.20
2023-02-06T05:37:41.769Z,21.80
2023-02-06T05:40:13.182Z,21.40
2023-02-06T05:42:41.705Z,21.60
2023-02-06T05:45:09.965Z,19.90
2023-02-06T05:47:41.237Z,22.20
2023-02-06T05:50:11.879Z,21.40
2023-02-06T05:52:40.682Z,17.30
2023-02-06T05:55:09.317Z,21.10
2023-02-06T05:57:38.571Z,22.00
2023-02-06T06:00:07.508Z,22.20
2023-02-06T06:02:42.141Z,23.70
2023-02-06T06:05:10.364Z,23.70
2023-02-06T06:07:40.525Z,21.40
2023-02-06T06:10:09.129Z,18.80
2023-02-06T06:12:37.566Z,20.60
2023-02-06T06:15:06.511Z,21.10
2023-02-06T06:17:35.770Z,20.80
2023-02-06T06:20:05.166Z,21.00
2023-02-06T06:22:34.622Z,21.40
2023-02-06T06:25:05.229Z,21.60
2023-02-06T06:27:33.993Z,21.60
2023-02-06T06:30:02.292Z,20.50
2023-02-06T06:32:30.770Z,21.50
2023-02-06T10:32:44.769Z,10.20
2023-02-06T10:35:29.536Z,11.30
2023-02-06T10:37:59.189Z,8.90
2023-02-06T10:40:41.435Z,9.20
2023-02-06T10:43:19.430Z,12.40
2023-02-06T10:45:53.933Z,13.30
2023-02-06T10:48:28.745Z,10.70
2023-02-06T10:51:09.275Z,10.20
2023-02-06T10:53:41.847Z,10.50
2023-02-06T10:56:15.421Z,10.50
2023-02-06T10:58:50.485Z,9.70
2023-02-06T11:01:26.114Z,10.90
2023-02-06T11:04:34.820Z,9.10
2023-02-06T11:07:06.958Z,14.00
2023-02-06T11:09:36.008Z,11.70
2023-02-06T11:12:05.256Z,12.80
2023-02-06T11:14:36.363Z,15.20
2023-02-06T11:17:04.544Z,15.20
2023-02-06T11:19:41.922Z,14.20
2023-02-06T11:22:12.914Z,10.80
2023-02-06T11:25:00.334Z,17.50
2023-02-06T11:27:29.279Z,18.20
2023-02-06T11:29:58.077Z,18.40
2023-02-06T11:32:40.840Z,15.20
2023-02-06T11:35:41.518Z,14.20
2023-02-06T11:38:20.700Z,12.80
2023-02-06T11:41:17.423Z,14.40
2023-02-06T11:43:49.693Z,11.30
2023-02-06T11:46:25.633Z,15.40
2023-02-06T11:48:58.673Z,18.40
2023-02-06T11:54:05.342Z,13.70
2023-02-06T11:56:33.735Z,11.60
2023-02-06T11:59:07.030Z,15.90
2023-02-06T12:01:46.500Z,15.70
2023-02-06T12:04:26.434Z,15.40
2023-02-06T12:06:59.558Z,12.70
2023-02-06T12:09:27.842Z,14.60
2023-02-06T12:12:05.616Z,12.40
2023-02-06T12:14:46.401Z,15.50
2023-02-06T12:17:55.624Z,13.30
2023-02-06T12:20:31.957Z,14.30
2023-02-06T12:23:26.080Z,16.80
2023-02-06T12:25:57.073Z,12.60
2023-02-06T12:28:26.825Z,13.60
2023-02-06T12:31:00.167Z,16.30
2023-02-06T12:33:36.274Z,17.70
2023-02-06T12:36:11.673Z,18.10
2023-02-06T12:39:20.650Z,18.10
2023-02-06T12:42:07.988Z,16.20
2023-02-06T12:44:50.094Z,16.80
2023-02-06T12:47:33.626Z,18.20
2023-02-06T12:50:14.591Z,14.40
2023-02-06T12:52:59.627Z,13.90
2023-02-06T12:56:03.942Z,13.40
2023-02-06T12:58:42.559Z,11.60
2023-02-06T13:02:05.408Z,10.00
2023-02-06T13:04:34.470Z,10.50
2023-02-06T13:07:14.736Z,12.50
2023-02-06T13:10:05.021Z,12.80
2023-02-06T13:12:33.354Z,11.10
2023-02-06T13:15:21.563Z,13.10
2023-02-06T13:17:52.758Z,11.60
2023-02-06T13:20:25.276Z,13.50
2023-02-06T13:23:16.128Z,14.00
2023-02-06T13:25:44.356Z,11.60
2023-02-06T13:28:21.956Z,16.10
2023-02-06T13:31:01.954Z,17.70
2023-02-06T13:34:03.161Z,17.60
2023-02-06T13:36:50.200Z,18.30
2023-02-06T13:39:27.203Z,23.70
2023-02-06T13:41:55.978Z,19.60
2023-02-06T13:44:37.002Z,16.40
2023-02-06T13:47:25.128Z,16.80
2023-02-06T13:50:19.533Z,15.20
2023-02-06T13:53:02.380Z,16.80
2023-02-06T13:58:40.089Z,11.40
2023-02-06T14:01:26.047Z,14.50
2023-02-06T14:03:55.497Z,16.20
2023-02-06T14:06:29.854Z,18.30
2023-02-06T14:09:17.321Z,18.10
2023-02-06T14:12:32.713Z,23.20
2023-02-06T14:15:02.510Z,20.80
2023-02-06T14:17:57.150Z,22.80
2023-02-06T14:20:28.792Z,21.00
2023-02-06T14:23:20.506Z,18.10
2023-02-06T14:26:01.949Z,16.50
2023-02-06T14:28:33.263Z,20.30
2023-02-06T14:31:01.638Z,19.20
2023-02-06T14:33:45.057Z,20.20
2023-02-06T14:36:58.177Z,19.00
2023-02-06T14:39:34.519Z,19.00
2023-02-06T14:42:27.201Z,25.80
2023-02-06T14:45:01.300Z,21.70
2023-02-06T14:47:31.924Z,18.10
2023-02-06T14:50:00.363Z,20.40
2023-02-06T14:52:29.942Z,21.20
2023-02-06T14:54:58.253Z,21.90
2023-02-06T14:57:31.125Z,20.60
2023-02-06T15:00:01.606Z,17.30
2023-02-06T15:02:33.126Z,17.80
2023-02-06T15:05:02.359Z,19.20
2023-02-06T15:07:36.226Z,23.40
2023-02-06T15:10:11.188Z,21.00
2023-02-06T15:12:40.098Z,19.90
2023-02-06T15:15:16.284Z,18.00
2023-02-06T15:17:58.906Z,17.60
2023-02-06T15:20:33.603Z,19.60
2023-02-06T15:23:16.875Z,22.80
2023-02-06T15:26:04.283Z,17.70
2023-02-06T15:28:34.015Z,18.40
2023-02-06T15:31:02.797Z,21.20
2023-02-06T15:33:33.202Z,19.90
2023-02-06T15:36:03.491Z,18.30
2023-02-06T15:38:33.108Z,17.60
2023-02-06T15:41:04.244Z,18.80
2023-02-06T15:43:33.223Z,20.40
2023-02-06T15:46:05.029Z,19.30
2023-02-06T15:48:55.064Z,18.50
2023-02-06T15:51:28.189Z,15.60
2023-02-06T15:54:18.758Z,16.90
2023-02-06T15:56:54.934Z,15.20
2023-02-06T15:59:25.526Z,14.90
2023-02-06T16:01:55.774Z,17.30
2023-02-06T16:04:27.075Z,22.70
2023-02-06T16:07:05.902Z,19.30
2023-02-06T16:24:16.679Z,24.60
2023-02-06T16:26:52.253Z,18.70
2023-02-06T16:29:27.017Z,15.20
2023-02-06T16:32:00.203Z,15.70
2023-02-06T16:34:31.560Z,16.30
2023-02-06T16:37:00.318Z,16.60
2023-02-06T16:39:28.722Z,18.40
2023-02-06T16:41:57.188Z,15.80
2023-02-06T16:44:36.015Z,15.90
2023-02-06T16:47:16.465Z,13.10
2023-02-06T19:25:49.463Z,19.40
2023-02-06T19:28:17.736Z,23.10
2023-02-06T19:30:46.144Z,22.60
2023-02-06T19:33:15.144Z,19.10
2023-02-06T19:35:44.352Z,28.80
2023-02-06T19:38:12.641Z,24.40
2023-02-06T19:40:41.148Z,24.10
2023-02-06T19:43:09.423Z,24.40
2023-02-06T19:45:38.169Z,23.00
2023-02-06T19:48:12.209Z,25.00
2023-02-06T19:50:43.217Z,24.00
2023-02-06T19:53:18.954Z,26.00
2023-02-06T19:55:47.984Z,33.40
2023-02-06T19:58:16.169Z,37.80
2023-02-06T20:00:44.906Z,41.00
2023-02-06T20:03:15.523Z,32.50
2023-02-06T20:05:44.553Z,28.00
2023-02-06T20:08:12.850Z,21.20
2023-02-06T20:10:43.927Z,22.00
2023-02-06T20:13:12.125Z,24.20
2023-02-06T20:15:40.481Z,22.10
2023-02-06T20:18:08.678Z,25.50
2023-02-06T20:20:38.052Z,26.10
2023-02-06T20:23:07.296Z,28.90
2023-02-06T20:25:38.449Z,27.80
2023-02-06T20:28:09.622Z,26.30
2023-02-06T20:30:42.190Z,27.30
2023-02-06T20:33:10.602Z,24.80
2023-02-06T20:35:44.680Z,24.80
2023-02-06T20:38:13.870Z,21.70
2023-02-06T20:40:49.062Z,24.40
2023-02-06T20:43:17.269Z,26.00
2023-02-06T20:45:46.041Z,30.60
2023-02-06T20:48:16.866Z,31.70
2023-02-06T20:50:47.948Z,29.30
2023-02-06T20:53:16.182Z,28.00
2023-02-06T20:55:44.381Z,26.10
2023-02-06T20:58:12.521Z,23.00
2023-02-06T21:00:40.856Z,25.70
2023-02-06T21:03:09.057Z,23.30
2023-02-06T21:05:39.473Z,25.30
2023-02-06T21:08:08.293Z,27.80
2023-02-06T21:10:39.077Z,24.70
2023-02-06T21:13:07.390Z,23.60
2023-02-06T21:15:36.271Z,26.20
2023-02-06T21:18:04.614Z,26.10
2023-02-06T21:20:32.855Z,27.70
2023-02-06T21:23:01.401Z,27.30
2023-02-06T21:25:31.049Z,22.90
2023-02-06T21:27:59.493Z,22.50
2023-02-06T21:30:27.712Z,25.90
2023-02-06T21:32:56.345Z,22.00
2023-02-06T21:35:24.614Z,21.70
2023-02-06T21:37:53.162Z,23.60
2023-02-06T21:40:21.703Z,23.40
2023-02-06T21:42:49.883Z,22.10
2023-02-06T21:45:18.270Z,22.70
2023-02-06T21:47:46.471Z,22.90
2023-02-06T21:50:14.747Z,22.00
2023-02-06T21:52:43.412Z,22.50
2023-02-06T21:55:12.819Z,21.40
2023-02-06T21:57:41.354Z,24.50
2023-02-06T22:00:10.471Z,30.30
2023-02-06T22:02:41.614Z,30.50
2023-02-06T22:05:09.886Z,34.20
2023-02-06T22:07:38.663Z,30.30
2023-02-06T22:10:08.134Z,29.80
2023-02-06T22:12:39.334Z,26.80
2023-02-06T22:15:10.166Z,25.50
2023-02-06T22:17:41.598Z,24.10
2023-02-06T22:20:10.287Z,21.10
2023-02-06T22:22:39.661Z,19.50
2023-02-06T22:25:09.218Z,20.80
2023-02-06T22:27:39.681Z,18.50
2023-02-06T22:30:08.306Z,18.30
2023-02-06T22:32:38.401Z,16.80
2023-02-06T22:35:06.983Z,18.30
2023-02-06T22:37:35.405Z,19.20
2023-02-06T22:40:03.923Z,21.70
2023-02-06T22:42:33.806Z,23.50
2023-02-06T22:45:02.857Z,22.80
2023-02-06T22:47:32.942Z,23.40
2023-02-06T22:50:01.276Z,21.90
2023-02-06T22:52:48.207Z,21.90
2023-02-06T22:55:16.478Z,19.90
2023-02-06T22:57:44.803Z,20.30
2023-02-06T23:00:14.946Z,22.00
2023-02-06T23:02:44.085Z,22.00
2023-02-06T23:05:12.198Z,20.10
2023-02-06T23:07:40.741Z,20.30
2023-02-06T23:10:09.121Z,19.60
2023-02-06T23:12:37.324Z,21.00
2023-02-06T23:15:07.664Z,20.30
2023-02-06T23:17:37.294Z,21.30
2023-02-06T23:20:07.233Z,20.40
2023-02-06T23:22:36.376Z,20.80
2023-02-06T23:25:04.721Z,18.60
2023-02-06T23:27:33.008Z,20.30
2023-02-06T23:30:01.605Z,21.30
2023-02-06T23:32:30.691Z,22.50
2023-02-06T23:35:00.123Z,20.20
2023-02-06T23:37:28.388Z,19.00
2023-02-06T23:39:56.578Z,19.50
2023-02-06T23:42:24.808Z,19.20
2023-02-06T23:44:52.983Z,19.30
2023-02-06T23:47:21.763Z,20.90
2023-02-06T23:49:50.057Z,23.00
2023-02-06T23:52:18.592Z,21.10
2023-02-06T23:54:47.216Z,23.50
2023-02-06T23:57:15.593Z,18.90
2023-02-06T23:59:44.473Z,19.50
